sensor_id;sensor_type;location;lat;lon;timestamp;P1;durP1;ratioP1;P2;durP2;ratioP2
50249;SDS011;36133;42.522;27.456;2023-05-10T00:01:53;15.05;;;8.75;;
50249;SDS011;36133;42.522;27.456;2023-05-10T00:04:19;15.32;;;9.05;;
50249;SDS011;36133;42.522;27.456;2023-05-10T00:06:45;14.68;;;9.40;;
50249;SDS011;36133;42.522;27.456;2023-05-10T00:09:11;15.25;;;9.35;;
50249;SDS011;36133;42.522;27.456;2023-05-10T00:11:36;16.50;;;9.35;;
50249;SDS011;36133;42.522;27.456;2023-05-10T00:14:02;23.77;;;9.25;;
50249;SDS011;36133;42.522;27.456;2023-05-10T00:16:27;17.92;;;9.73;;
50249;SDS011;36133;42.522;27.456;2023-05-10T00:18:53;17.48;;;9.02;;
50249;SDS011;36133;42.522;27.456;2023-05-10T00:21:18;16.60;;;8.98;;
50249;SDS011;36133;42.522;27.456;2023-05-10T00:23:44;17.45;;;9.40;;
50249;SDS011;36133;42.522;27.456;2023-05-10T00:26:09;17.73;;;9.13;;
50249;SDS011;36133;42.522;27.456;2023-05-10T00:28:35;19.73;;;9.00;;
50249;SDS011;36133;42.522;27.456;2023-05-10T00:31:01;17.50;;;9.30;;
50249;SDS011;36133;42.522;27.456;2023-05-10T00:33:26;18.90;;;9.68;;
50249;SDS011;36133;42.522;27.456;2023-05-10T00:35:52;13.18;;;9.18;;
50249;SDS011;36133;42.522;27.456;2023-05-10T00:38:17;16.55;;;9.02;;
50249;SDS011;36133;42.522;27.456;2023-05-10T00:40:43;19.15;;;8.80;;
50249;SDS011;36133;42.522;27.456;2023-05-10T00:43:09;16.00;;;9.27;;
50249;SDS011;36133;42.522;27.456;2023-05-10T00:45:34;18.50;;;9.30;;
50249;SDS011;36133;42.522;27.456;2023-05-10T00:48:01;15.63;;;9.43;;
50249;SDS011;36133;42.522;27.456;2023-05-10T00:50:27;16.33;;;9.45;;
50249;SDS011;36133;42.522;27.456;2023-05-10T00:52:53;15.57;;;8.63;;
50249;SDS011;36133;42.522;27.456;2023-05-10T00:55:20;15.52;;;8.40;;
50249;SDS011;36133;42.522;27.456;2023-05-10T00:57:46;21.48;;;9.48;;
50249;SDS011;36133;42.522;27.456;2023-05-10T01:00:13;19.23;;;9.60;;
50249;SDS011;36133;42.522;27.456;2023-05-10T01:02:43;15.82;;;8.30;;
50249;SDS011;36133;42.522;27.456;2023-05-10T01:05:11;20.83;;;8.80;;
50249;SDS011;36133;42.522;27.456;2023-05-10T01:07:38;15.70;;;9.07;;
50249;SDS011;36133;42.522;27.456;2023-05-10T01:10:07;20.33;;;10.63;;
50249;SDS011;36133;42.522;27.456;2023-05-10T01:12:37;19.13;;;10.30;;
50249;SDS011;36133;42.522;27.456;2023-05-10T01:15:07;18.35;;;9.20;;
50249;SDS011;36133;42.522;27.456;2023-05-10T01:17:38;15.88;;;9.02;;
50249;SDS011;36133;42.522;27.456;2023-05-10T01:20:07;15.63;;;9.18;;
50249;SDS011;36133;42.522;27.456;2023-05-10T01:22:42;13.77;;;9.32;;
50249;SDS011;36133;42.522;27.456;2023-05-10T01:25:55;16.27;;;8.73;;
50249;SDS011;36133;42.522;27.456;2023-05-10T01:32:00;19.08;;;9.63;;
50249;SDS011;36133;42.522;27.456;2023-05-10T01:34:37;17.90;;;9.60;;
50249;SDS011;36133;42.522;27.456;2023-05-10T01:37:15;24.73;;;9.60;;
50249;SDS011;36133;42.522;27.456;2023-05-10T01:39:50;13.90;;;8.52;;
50249;SDS011;36133;42.522;27.456;2023-05-10T01:42:26;16.17;;;9.27;;
50249;SDS011;36133;42.522;27.456;2023-05-10T01:45:24;17.08;;;9.48;;
50249;SDS011;36133;42.522;27.456;2023-05-10T01:48:06;16.30;;;9.90;;
50249;SDS011;36133;42.522;27.456;2023-05-10T01:50:34;14.15;;;9.18;;
50249;SDS011;36133;42.522;27.456;2023-05-10T01:53:01;15.30;;;9.10;;
50249;SDS011;36133;42.522;27.456;2023-05-10T01:55:30;15.48;;;9.85;;
50249;SDS011;36133;42.522;27.456;2023-05-10T01:58:07;17.52;;;9.57;;
50249;SDS011;36133;42.522;27.456;2023-05-10T02:00:40;16.17;;;9.50;;
50249;SDS011;36133;42.522;27.456;2023-05-10T02:03:10;16.00;;;9.25;;
50249;SDS011;36133;42.522;27.456;2023-05-10T02:05:38;20.27;;;9.73;;
50249;SDS011;36133;42.522;27.456;2023-05-10T02:08:06;14.60;;;10.00;;
50249;SDS011;36133;42.522;27.456;2023-05-10T02:10:36;17.50;;;10.02;;
50249;SDS011;36133;42.522;27.456;2023-05-10T02:13:03;21.42;;;10.65;;
50249;SDS011;36133;42.522;27.456;2023-05-10T02:15:31;24.38;;;9.82;;
50249;SDS011;36133;42.522;27.456;2023-05-10T02:17:58;22.02;;;11.07;;
50249;SDS011;36133;42.522;27.456;2023-05-10T02:20:25;17.85;;;10.98;;
50249;SDS011;36133;42.522;27.456;2023-05-10T02:22:52;17.88;;;10.75;;
50249;SDS011;36133;42.522;27.456;2023-05-10T02:25:19;17.55;;;10.18;;
50249;SDS011;36133;42.522;27.456;2023-05-10T02:27:47;18.35;;;10.52;;
50249;SDS011;36133;42.522;27.456;2023-05-10T02:30:14;21.60;;;12.13;;
50249;SDS011;36133;42.522;27.456;2023-05-10T02:32:40;21.35;;;11.32;;
50249;SDS011;36133;42.522;27.456;2023-05-10T02:35:07;18.67;;;11.38;;
50249;SDS011;36133;42.522;27.456;2023-05-10T02:37:35;20.88;;;11.00;;
50249;SDS011;36133;42.522;27.456;2023-05-10T02:40:02;23.60;;;11.15;;
50249;SDS011;36133;42.522;27.456;2023-05-10T02:42:31;18.75;;;10.77;;
50249;SDS011;36133;42.522;27.456;2023-05-10T02:45:00;19.33;;;11.77;;
50249;SDS011;36133;42.522;27.456;2023-05-10T02:47:28;19.38;;;10.68;;
50249;SDS011;36133;42.522;27.456;2023-05-10T02:49:54;20.48;;;11.07;;
50249;SDS011;36133;42.522;27.456;2023-05-10T02:52:21;17.52;;;11.02;;
50249;SDS011;36133;42.522;27.456;2023-05-10T02:54:54;21.40;;;11.43;;
50249;SDS011;36133;42.522;27.456;2023-05-10T02:57:28;20.15;;;11.68;;
50249;SDS011;36133;42.522;27.456;2023-05-10T02:59:59;24.92;;;11.93;;
50249;SDS011;36133;42.522;27.456;2023-05-10T03:02:26;17.48;;;10.57;;
50249;SDS011;36133;42.522;27.456;2023-05-10T03:04:52;17.40;;;10.77;;
50249;SDS011;36133;42.522;27.456;2023-05-10T03:07:17;21.55;;;11.23;;
50249;SDS011;36133;42.522;27.456;2023-05-10T03:09:46;17.15;;;11.15;;
50249;SDS011;36133;42.522;27.456;2023-05-10T03:20:22;17.75;;;11.55;;
50249;SDS011;36133;42.522;27.456;2023-05-10T03:22:53;25.45;;;11.77;;
50249;SDS011;36133;42.522;27.456;2023-05-10T03:25:25;19.02;;;11.32;;
50249;SDS011;36133;42.522;27.456;2023-05-10T03:27:51;17.85;;;11.25;;
50249;SDS011;36133;42.522;27.456;2023-05-10T03:30:17;21.15;;;10.95;;
50249;SDS011;36133;42.522;27.456;2023-05-10T03:32:44;15.75;;;10.77;;
50249;SDS011;36133;42.522;27.456;2023-05-10T03:35:10;20.75;;;12.00;;
50249;SDS011;36133;42.522;27.456;2023-05-10T03:37:38;21.52;;;11.93;;
50249;SDS011;36133;42.522;27.456;2023-05-10T03:40:04;18.67;;;11.90;;
50249;SDS011;36133;42.522;27.456;2023-05-10T03:42:30;25.23;;;12.65;;
50249;SDS011;36133;42.522;27.456;2023-05-10T03:44:55;16.58;;;11.20;;
50249;SDS011;36133;42.522;27.456;2023-05-10T03:47:21;18.45;;;12.50;;
50249;SDS011;36133;42.522;27.456;2023-05-10T03:49:46;21.33;;;11.40;;
50249;SDS011;36133;42.522;27.456;2023-05-10T03:52:12;19.13;;;12.18;;
50249;SDS011;36133;42.522;27.456;2023-05-10T03:54:37;14.65;;;10.60;;
50249;SDS011;36133;42.522;27.456;2023-05-10T03:57:03;21.00;;;10.18;;
50249;SDS011;36133;42.522;27.456;2023-05-10T03:59:29;28.95;;;11.50;;
50249;SDS011;36133;42.522;27.456;2023-05-10T04:01:55;18.10;;;9.98;;
50249;SDS011;36133;42.522;27.456;2023-05-10T04:04:20;19.70;;;10.50;;
50249;SDS011;36133;42.522;27.456;2023-05-10T04:06:47;14.23;;;9.60;;
50249;SDS011;36133;42.522;27.456;2023-05-10T04:09:12;19.52;;;9.23;;
50249;SDS011;36133;42.522;27.456;2023-05-10T04:11:38;15.77;;;9.38;;
50249;SDS011;36133;42.522;27.456;2023-05-10T04:14:04;18.15;;;9.32;;
50249;SDS011;36133;42.522;27.456;2023-05-10T04:16:29;18.85;;;9.20;;
50249;SDS011;36133;42.522;27.456;2023-05-10T04:18:55;12.82;;;8.65;;
50249;SDS011;36133;42.522;27.456;2023-05-10T04:21:20;15.55;;;9.18;;
50249;SDS011;36133;42.522;27.456;2023-05-10T04:23:46;18.33;;;10.07;;
50249;SDS011;36133;42.522;27.456;2023-05-10T04:26:12;19.30;;;9.77;;
50249;SDS011;36133;42.522;27.456;2023-05-10T04:28:38;19.15;;;8.90;;
50249;SDS011;36133;42.522;27.456;2023-05-10T04:31:04;18.50;;;8.95;;
50249;SDS011;36133;42.522;27.456;2023-05-10T04:33:33;14.00;;;9.23;;
50249;SDS011;36133;42.522;27.456;2023-05-10T04:35:59;14.43;;;9.18;;
50249;SDS011;36133;42.522;27.456;2023-05-10T04:38:25;14.00;;;8.65;;
50249;SDS011;36133;42.522;27.456;2023-05-10T04:40:52;16.33;;;8.52;;
50249;SDS011;36133;42.522;27.456;2023-05-10T04:43:17;17.58;;;9.35;;
50249;SDS011;36133;42.522;27.456;2023-05-10T04:45:43;18.70;;;9.20;;
50249;SDS011;36133;42.522;27.456;2023-05-10T04:48:08;17.30;;;9.00;;
50249;SDS011;36133;42.522;27.456;2023-05-10T04:50:34;17.52;;;8.82;;
50249;SDS011;36133;42.522;27.456;2023-05-10T04:53:00;19.83;;;8.93;;
50249;SDS011;36133;42.522;27.456;2023-05-10T04:55:25;16.63;;;9.07;;
50249;SDS011;36133;42.522;27.456;2023-05-10T04:57:52;18.77;;;9.13;;
50249;SDS011;36133;42.522;27.456;2023-05-10T05:00:18;18.92;;;9.70;;
50249;SDS011;36133;42.522;27.456;2023-05-10T05:02:44;15.50;;;9.35;;
50249;SDS011;36133;42.522;27.456;2023-05-10T05:05:11;18.55;;;8.63;;
50249;SDS011;36133;42.522;27.456;2023-05-10T05:07:37;20.98;;;9.80;;
50249;SDS011;36133;42.522;27.456;2023-05-10T05:10:03;13.60;;;7.82;;
50249;SDS011;36133;42.522;27.456;2023-05-10T05:12:30;14.88;;;8.18;;
50249;SDS011;36133;42.522;27.456;2023-05-10T05:14:56;12.15;;;7.15;;
50249;SDS011;36133;42.522;27.456;2023-05-10T05:17:21;12.60;;;7.57;;
50249;SDS011;36133;42.522;27.456;2023-05-10T05:19:47;11.93;;;6.20;;
50249;SDS011;36133;42.522;27.456;2023-05-10T05:22:13;11.77;;;6.45;;
50249;SDS011;36133;42.522;27.456;2023-05-10T05:24:38;11.77;;;6.03;;
50249;SDS011;36133;42.522;27.456;2023-05-10T05:27:04;11.13;;;6.15;;
50249;SDS011;36133;42.522;27.456;2023-05-10T05:29:29;11.60;;;5.80;;
50249;SDS011;36133;42.522;27.456;2023-05-10T05:31:55;11.70;;;6.00;;
50249;SDS011;36133;42.522;27.456;2023-05-10T05:34:20;10.30;;;5.38;;
50249;SDS011;36133;42.522;27.456;2023-05-10T05:36:47;6.82;;;5.00;;
50249;SDS011;36133;42.522;27.456;2023-05-10T05:39:13;11.30;;;5.47;;
50249;SDS011;36133;42.522;27.456;2023-05-10T05:41:39;7.32;;;4.78;;
50249;SDS011;36133;42.522;27.456;2023-05-10T05:44:04;9.45;;;5.43;;
50249;SDS011;36133;42.522;27.456;2023-05-10T05:46:30;8.70;;;5.03;;
50249;SDS011;36133;42.522;27.456;2023-05-10T05:48:56;12.00;;;5.28;;
50249;SDS011;36133;42.522;27.456;2023-05-10T05:51:21;12.02;;;4.50;;
50249;SDS011;36133;42.522;27.456;2023-05-10T05:53:47;8.10;;;4.18;;
50249;SDS011;36133;42.522;27.456;2023-05-10T05:56:13;8.02;;;4.65;;
50249;SDS011;36133;42.522;27.456;2023-05-10T05:58:38;10.98;;;5.10;;
50249;SDS011;36133;42.522;27.456;2023-05-10T06:01:04;7.53;;;4.47;;
50249;SDS011;36133;42.522;27.456;2023-05-10T06:03:30;5.57;;;4.03;;
50249;SDS011;36133;42.522;27.456;2023-05-10T06:05:55;10.55;;;4.50;;
50249;SDS011;36133;42.522;27.456;2023-05-10T06:08:21;7.38;;;3.78;;
50249;SDS011;36133;42.522;27.456;2023-05-10T06:10:47;7.55;;;3.90;;
50249;SDS011;36133;42.522;27.456;2023-05-10T06:13:13;6.50;;;3.45;;
50249;SDS011;36133;42.522;27.456;2023-05-10T06:15:38;6.10;;;3.63;;
50249;SDS011;36133;42.522;27.456;2023-05-10T06:18:04;4.72;;;2.88;;
50249;SDS011;36133;42.522;27.456;2023-05-10T06:20:30;7.25;;;2.83;;
50249;SDS011;36133;42.522;27.456;2023-05-10T06:22:56;8.02;;;2.90;;
50249;SDS011;36133;42.522;27.456;2023-05-10T06:25:23;5.88;;;2.70;;
50249;SDS011;36133;42.522;27.456;2023-05-10T06:27:48;6.28;;;2.60;;
50249;SDS011;36133;42.522;27.456;2023-05-10T06:30:14;9.70;;;3.22;;
50249;SDS011;36133;42.522;27.456;2023-05-10T06:32:48;5.55;;;3.28;;
50249;SDS011;36133;42.522;27.456;2023-05-10T06:35:13;5.40;;;2.85;;
50249;SDS011;36133;42.522;27.456;2023-05-10T06:37:39;9.73;;;3.25;;
50249;SDS011;36133;42.522;27.456;2023-05-10T06:40:05;6.20;;;2.88;;
50249;SDS011;36133;42.522;27.456;2023-05-10T06:42:33;9.63;;;3.33;;
50249;SDS011;36133;42.522;27.456;2023-05-10T06:44:58;8.98;;;3.45;;
50249;SDS011;36133;42.522;27.456;2023-05-10T06:47:24;8.20;;;3.08;;
50249;SDS011;36133;42.522;27.456;2023-05-10T06:49:49;7.15;;;2.72;;
50249;SDS011;36133;42.522;27.456;2023-05-10T06:52:15;6.00;;;2.63;;
50249;SDS011;36133;42.522;27.456;2023-05-10T06:54:43;4.25;;;2.30;;
50249;SDS011;36133;42.522;27.456;2023-05-10T06:57:31;6.20;;;2.75;;
50249;SDS011;36133;42.522;27.456;2023-05-10T06:59:57;4.28;;;2.25;;
50249;SDS011;36133;42.522;27.456;2023-05-10T07:02:25;3.58;;;2.60;;
50249;SDS011;36133;42.522;27.456;2023-05-10T07:04:51;7.95;;;2.30;;
50249;SDS011;36133;42.522;27.456;2023-05-10T07:07:17;6.05;;;2.83;;
50249;SDS011;36133;42.522;27.456;2023-05-10T07:09:43;8.38;;;2.47;;
50249;SDS011;36133;42.522;27.456;2023-05-10T07:12:09;8.82;;;2.55;;
50249;SDS011;36133;42.522;27.456;2023-05-10T07:14:35;5.47;;;2.85;;
50249;SDS011;36133;42.522;27.456;2023-05-10T07:17:01;10.00;;;2.63;;
50249;SDS011;36133;42.522;27.456;2023-05-10T07:19:26;7.20;;;2.42;;
50249;SDS011;36133;42.522;27.456;2023-05-10T07:21:52;6.95;;;2.50;;
50249;SDS011;36133;42.522;27.456;2023-05-10T07:24:17;6.82;;;2.50;;
50249;SDS011;36133;42.522;27.456;2023-05-10T07:26:44;7.18;;;2.97;;
50249;SDS011;36133;42.522;27.456;2023-05-10T07:29:12;6.18;;;2.70;;
50249;SDS011;36133;42.522;27.456;2023-05-10T07:31:38;3.75;;;2.70;;
50249;SDS011;36133;42.522;27.456;2023-05-10T07:34:04;4.50;;;2.92;;
50249;SDS011;36133;42.522;27.456;2023-05-10T07:36:29;5.35;;;2.92;;
50249;SDS011;36133;42.522;27.456;2023-05-10T07:38:55;4.05;;;2.70;;
50249;SDS011;36133;42.522;27.456;2023-05-10T07:41:22;7.35;;;2.88;;
50249;SDS011;36133;42.522;27.456;2023-05-10T07:43:48;6.70;;;3.08;;
50249;SDS011;36133;42.522;27.456;2023-05-10T07:46:14;10.02;;;2.83;;
50249;SDS011;36133;42.522;27.456;2023-05-10T07:48:40;8.45;;;4.18;;
50249;SDS011;36133;42.522;27.456;2023-05-10T07:51:06;6.72;;;2.58;;
50249;SDS011;36133;42.522;27.456;2023-05-10T07:53:34;4.45;;;2.63;;
50249;SDS011;36133;42.522;27.456;2023-05-10T07:56:19;7.30;;;2.80;;
50249;SDS011;36133;42.522;27.456;2023-05-10T07:59:09;4.47;;;2.90;;
50249;SDS011;36133;42.522;27.456;2023-05-10T08:01:35;4.35;;;2.60;;
50249;SDS011;36133;42.522;27.456;2023-05-10T08:04:01;5.88;;;2.70;;
50249;SDS011;36133;42.522;27.456;2023-05-10T08:06:27;6.60;;;3.25;;
50249;SDS011;36133;42.522;27.456;2023-05-10T08:08:54;14.00;;;3.63;;
50249;SDS011;36133;42.522;27.456;2023-05-10T08:11:23;8.48;;;3.25;;
50249;SDS011;36133;42.522;27.456;2023-05-10T08:13:52;3.80;;;2.80;;
50249;SDS011;36133;42.522;27.456;2023-05-10T08:16:18;6.15;;;3.05;;
50249;SDS011;36133;42.522;27.456;2023-05-10T08:18:47;7.53;;;2.90;;
50249;SDS011;36133;42.522;27.456;2023-05-10T08:21:14;7.47;;;3.00;;
50249;SDS011;36133;42.522;27.456;2023-05-10T08:23:40;4.60;;;2.53;;
50249;SDS011;36133;42.522;27.456;2023-05-10T08:26:06;9.05;;;2.80;;
50249;SDS011;36133;42.522;27.456;2023-05-10T08:28:32;5.57;;;2.78;;
50249;SDS011;36133;42.522;27.456;2023-05-10T08:30:57;6.22;;;3.10;;
50249;SDS011;36133;42.522;27.456;2023-05-10T08:33:23;6.65;;;2.50;;
50249;SDS011;36133;42.522;27.456;2023-05-10T08:35:49;10.50;;;3.67;;
50249;SDS011;36133;42.522;27.456;2023-05-10T08:38:17;4.78;;;2.72;;
50249;SDS011;36133;42.522;27.456;2023-05-10T08:40:44;6.80;;;2.70;;
50249;SDS011;36133;42.522;27.456;2023-05-10T08:43:14;6.85;;;3.20;;
50249;SDS011;36133;42.522;27.456;2023-05-10T08:45:43;4.72;;;2.60;;
50249;SDS011;36133;42.522;27.456;2023-05-10T08:48:13;4.68;;;2.70;;
50249;SDS011;36133;42.522;27.456;2023-05-10T08:50:39;8.85;;;2.97;;
50249;SDS011;36133;42.522;27.456;2023-05-10T08:53:09;7.25;;;2.75;;
50249;SDS011;36133;42.522;27.456;2023-05-10T08:55:36;6.20;;;3.08;;
50249;SDS011;36133;42.522;27.456;2023-05-10T08:58:06;7.68;;;2.97;;
50249;SDS011;36133;42.522;27.456;2023-05-10T09:00:32;5.18;;;2.90;;
50249;SDS011;36133;42.522;27.456;2023-05-10T09:02:59;9.82;;;3.22;;
50249;SDS011;36133;42.522;27.456;2023-05-10T09:05:25;4.53;;;2.85;;
50249;SDS011;36133;42.522;27.456;2023-05-10T09:07:51;6.13;;;2.97;;
50249;SDS011;36133;42.522;27.456;2023-05-10T09:10:17;6.55;;;3.00;;
50249;SDS011;36133;42.522;27.456;2023-05-10T09:12:44;8.70;;;3.30;;
50249;SDS011;36133;42.522;27.456;2023-05-10T09:15:12;7.57;;;3.13;;
50249;SDS011;36133;42.522;27.456;2023-05-10T09:17:44;14.23;;;3.33;;
50249;SDS011;36133;42.522;27.456;2023-05-10T09:20:10;5.32;;;2.70;;
50249;SDS011;36133;42.522;27.456;2023-05-10T09:22:36;7.50;;;2.80;;
50249;SDS011;36133;42.522;27.456;2023-05-10T09:25:07;6.55;;;3.13;;
50249;SDS011;36133;42.522;27.456;2023-05-10T09:27:35;6.25;;;2.80;;
50249;SDS011;36133;42.522;27.456;2023-05-10T09:30:01;9.25;;;3.10;;
50249;SDS011;36133;42.522;27.456;2023-05-10T09:32:38;6.32;;;3.40;;
50249;SDS011;36133;42.522;27.456;2023-05-10T09:35:07;6.32;;;3.03;;
50249;SDS011;36133;42.522;27.456;2023-05-10T09:37:33;7.47;;;3.17;;
50249;SDS011;36133;42.522;27.456;2023-05-10T09:39:59;10.77;;;3.15;;
50249;SDS011;36133;42.522;27.456;2023-05-10T09:42:24;6.53;;;2.47;;
50249;SDS011;36133;42.522;27.456;2023-05-10T09:44:50;5.75;;;2.75;;
50249;SDS011;36133;42.522;27.456;2023-05-10T09:47:19;8.65;;;3.25;;
50249;SDS011;36133;42.522;27.456;2023-05-10T09:49:49;8.93;;;3.00;;
50249;SDS011;36133;42.522;27.456;2023-05-10T09:52:16;12.35;;;3.17;;
50249;SDS011;36133;42.522;27.456;2023-05-10T09:54:45;6.43;;;2.75;;
50249;SDS011;36133;42.522;27.456;2023-05-10T09:57:18;7.35;;;2.92;;
50249;SDS011;36133;42.522;27.456;2023-05-10T09:59:46;6.07;;;3.10;;
50249;SDS011;36133;42.522;27.456;2023-05-10T10:02:12;15.70;;;3.60;;
50249;SDS011;36133;42.522;27.456;2023-05-10T10:04:39;11.48;;;3.58;;
50249;SDS011;36133;42.522;27.456;2023-05-10T10:07:05;6.95;;;3.30;;
50249;SDS011;36133;42.522;27.456;2023-05-10T10:09:31;7.45;;;3.47;;
50249;SDS011;36133;42.522;27.456;2023-05-10T10:11:58;8.70;;;3.20;;
50249;SDS011;36133;42.522;27.456;2023-05-10T10:14:27;6.82;;;3.80;;
50249;SDS011;36133;42.522;27.456;2023-05-10T10:16:54;6.20;;;3.50;;
50249;SDS011;36133;42.522;27.456;2023-05-10T10:19:20;7.10;;;3.15;;
50249;SDS011;36133;42.522;27.456;2023-05-10T10:21:48;12.35;;;3.47;;
50249;SDS011;36133;42.522;27.456;2023-05-10T10:24:14;6.25;;;3.25;;
50249;SDS011;36133;42.522;27.456;2023-05-10T10:26:40;6.20;;;3.15;;
50249;SDS011;36133;42.522;27.456;2023-05-10T10:29:25;8.07;;;2.92;;
50249;SDS011;36133;42.522;27.456;2023-05-10T10:32:03;5.15;;;2.90;;
50249;SDS011;36133;42.522;27.456;2023-05-10T10:34:32;5.55;;;3.00;;
50249;SDS011;36133;42.522;27.456;2023-05-10T10:37:04;6.03;;;3.35;;
50249;SDS011;36133;42.522;27.456;2023-05-10T10:39:31;7.00;;;3.15;;
50249;SDS011;36133;42.522;27.456;2023-05-10T10:42:06;6.53;;;3.10;;
50249;SDS011;36133;42.522;27.456;2023-05-10T10:52:34;8.23;;;3.10;;
50249;SDS011;36133;42.522;27.456;2023-05-10T10:55:07;6.60;;;3.35;;
50249;SDS011;36133;42.522;27.456;2023-05-10T10:57:50;5.85;;;2.65;;
50249;SDS011;36133;42.522;27.456;2023-05-10T11:00:23;5.15;;;3.28;;
50249;SDS011;36133;42.522;27.456;2023-05-10T11:03:03;7.95;;;2.63;;
50249;SDS011;36133;42.522;27.456;2023-05-10T11:05:34;7.15;;;2.80;;
50249;SDS011;36133;42.522;27.456;2023-05-10T11:10:54;9.18;;;2.88;;
50249;SDS011;36133;42.522;27.456;2023-05-10T11:16:13;5.07;;;2.90;;
50249;SDS011;36133;42.522;27.456;2023-05-10T11:18:51;5.15;;;3.00;;
50249;SDS011;36133;42.522;27.456;2023-05-10T11:21:18;3.72;;;2.50;;
50249;SDS011;36133;42.522;27.456;2023-05-10T11:26:12;10.05;;;3.78;;
50249;SDS011;36133;42.522;27.456;2023-05-10T11:28:45;7.75;;;2.90;;
50249;SDS011;36133;42.522;27.456;2023-05-10T11:31:19;7.43;;;2.33;;
50249;SDS011;36133;42.522;27.456;2023-05-10T11:33:46;5.05;;;2.38;;
50249;SDS011;36133;42.522;27.456;2023-05-10T11:36:17;4.60;;;3.05;;
50249;SDS011;36133;42.522;27.456;2023-05-10T11:38:47;7.55;;;2.40;;
50249;SDS011;36133;42.522;27.456;2023-05-10T11:41:13;5.10;;;2.40;;
50249;SDS011;36133;42.522;27.456;2023-05-10T11:43:41;9.82;;;3.00;;
50249;SDS011;36133;42.522;27.456;2023-05-10T11:46:07;8.30;;;2.58;;
50249;SDS011;36133;42.522;27.456;2023-05-10T11:48:35;5.40;;;3.22;;
50249;SDS011;36133;42.522;27.456;2023-05-10T11:51:01;7.65;;;3.28;;
50249;SDS011;36133;42.522;27.456;2023-05-10T11:53:31;11.77;;;2.75;;
50249;SDS011;36133;42.522;27.456;2023-05-10T11:56:07;7.25;;;2.88;;
50249;SDS011;36133;42.522;27.456;2023-05-10T11:58:34;5.30;;;2.70;;
50249;SDS011;36133;42.522;27.456;2023-05-10T12:01:01;9.25;;;2.53;;
50249;SDS011;36133;42.522;27.456;2023-05-10T12:03:27;7.78;;;3.72;;
50249;SDS011;36133;42.522;27.456;2023-05-10T12:05:54;16.73;;;3.83;;
50249;SDS011;36133;42.522;27.456;2023-05-10T12:08:21;5.13;;;2.80;;
50249;SDS011;36133;42.522;27.456;2023-05-10T12:10:48;6.80;;;3.55;;
50249;SDS011;36133;42.522;27.456;2023-05-10T12:13:14;8.68;;;3.33;;
50249;SDS011;36133;42.522;27.456;2023-05-10T12:15:40;7.32;;;2.95;;
50249;SDS011;36133;42.522;27.456;2023-05-10T12:18:13;6.82;;;3.08;;
50249;SDS011;36133;42.522;27.456;2023-05-10T12:20:40;6.22;;;2.70;;
50249;SDS011;36133;42.522;27.456;2023-05-10T12:23:07;6.10;;;2.65;;
50249;SDS011;36133;42.522;27.456;2023-05-10T12:25:37;6.05;;;2.75;;
50249;SDS011;36133;42.522;27.456;2023-05-10T12:28:06;13.48;;;2.83;;
50249;SDS011;36133;42.522;27.456;2023-05-10T12:30:34;6.63;;;2.70;;
50249;SDS011;36133;42.522;27.456;2023-05-10T12:33:11;8.40;;;2.55;;
50249;SDS011;36133;42.522;27.456;2023-05-10T12:35:47;5.47;;;2.90;;
50249;SDS011;36133;42.522;27.456;2023-05-10T12:41:03;7.40;;;3.13;;
50249;SDS011;36133;42.522;27.456;2023-05-10T12:43:34;8.15;;;4.00;;
50249;SDS011;36133;42.522;27.456;2023-05-10T12:46:10;6.50;;;3.03;;
50249;SDS011;36133;42.522;27.456;2023-05-10T12:48:37;5.38;;;3.33;;
50249;SDS011;36133;42.522;27.456;2023-05-10T12:51:04;6.80;;;2.92;;
50249;SDS011;36133;42.522;27.456;2023-05-10T12:53:33;3.53;;;2.97;;
50249;SDS011;36133;42.522;27.456;2023-05-10T12:55:59;5.70;;;2.90;;
50249;SDS011;36133;42.522;27.456;2023-05-10T12:58:24;4.88;;;2.92;;
50249;SDS011;36133;42.522;27.456;2023-05-10T13:00:50;6.03;;;2.80;;
50249;SDS011;36133;42.522;27.456;2023-05-10T13:03:16;6.80;;;3.10;;
50249;SDS011;36133;42.522;27.456;2023-05-10T13:05:42;9.82;;;3.50;;
50249;SDS011;36133;42.522;27.456;2023-05-10T13:08:08;5.28;;;3.20;;
50249;SDS011;36133;42.522;27.456;2023-05-10T13:10:36;5.85;;;3.60;;
50249;SDS011;36133;42.522;27.456;2023-05-10T13:13:05;5.88;;;3.17;;
50249;SDS011;36133;42.522;27.456;2023-05-10T13:15:31;6.47;;;3.42;;
50249;SDS011;36133;42.522;27.456;2023-05-10T13:17:57;5.95;;;4.05;;
50249;SDS011;36133;42.522;27.456;2023-05-10T13:20:22;9.15;;;3.30;;
50249;SDS011;36133;42.522;27.456;2023-05-10T13:22:48;8.45;;;3.58;;
50249;SDS011;36133;42.522;27.456;2023-05-10T13:25:13;7.35;;;3.58;;
50249;SDS011;36133;42.522;27.456;2023-05-10T13:27:39;7.38;;;3.72;;
50249;SDS011;36133;42.522;27.456;2023-05-10T13:30:06;7.55;;;3.50;;
50249;SDS011;36133;42.522;27.456;2023-05-10T13:32:33;6.80;;;3.30;;
50249;SDS011;36133;42.522;27.456;2023-05-10T13:34:59;7.55;;;4.05;;
50249;SDS011;36133;42.522;27.456;2023-05-10T13:37:25;7.35;;;3.38;;
50249;SDS011;36133;42.522;27.456;2023-05-10T13:39:50;5.32;;;3.45;;
50249;SDS011;36133;42.522;27.456;2023-05-10T13:42:17;6.07;;;3.28;;
50249;SDS011;36133;42.522;27.456;2023-05-10T13:44:42;5.63;;;3.35;;
50249;SDS011;36133;42.522;27.456;2023-05-10T13:47:11;9.05;;;3.47;;
50249;SDS011;36133;42.522;27.456;2023-05-10T13:49:37;6.25;;;3.50;;
50249;SDS011;36133;42.522;27.456;2023-05-10T13:52:02;6.53;;;3.08;;
50249;SDS011;36133;42.522;27.456;2023-05-10T13:54:32;6.75;;;3.10;;
50249;SDS011;36133;42.522;27.456;2023-05-10T13:57:03;10.05;;;4.00;;
50249;SDS011;36133;42.522;27.456;2023-05-10T13:59:32;7.47;;;3.28;;
50249;SDS011;36133;42.522;27.456;2023-05-10T14:01:58;6.88;;;3.05;;
50249;SDS011;36133;42.522;27.456;2023-05-10T14:04:24;9.82;;;3.92;;
50249;SDS011;36133;42.522;27.456;2023-05-10T14:06:50;8.73;;;3.20;;
50249;SDS011;36133;42.522;27.456;2023-05-10T14:09:18;6.32;;;2.75;;
50249;SDS011;36133;42.522;27.456;2023-05-10T14:11:44;6.60;;;3.60;;
50249;SDS011;36133;42.522;27.456;2023-05-10T14:14:10;8.15;;;3.53;;
50249;SDS011;36133;42.522;27.456;2023-05-10T14:16:37;13.60;;;3.00;;
50249;SDS011;36133;42.522;27.456;2023-05-10T14:19:03;5.95;;;3.40;;
50249;SDS011;36133;42.522;27.456;2023-05-10T14:21:28;11.70;;;3.40;;
50249;SDS011;36133;42.522;27.456;2023-05-10T14:23:55;6.25;;;3.10;;
50249;SDS011;36133;42.522;27.456;2023-05-10T14:26:21;8.95;;;3.10;;
50249;SDS011;36133;42.522;27.456;2023-05-10T14:28:47;15.15;;;3.17;;
50249;SDS011;36133;42.522;27.456;2023-05-10T14:31:12;9.70;;;3.20;;
50249;SDS011;36133;42.522;27.456;2023-05-10T14:33:39;11.63;;;3.17;;
50249;SDS011;36133;42.522;27.456;2023-05-10T14:36:05;6.10;;;2.95;;
50249;SDS011;36133;42.522;27.456;2023-05-10T14:38:34;5.78;;;2.88;;
50249;SDS011;36133;42.522;27.456;2023-05-10T14:41:00;8.48;;;3.30;;
50249;SDS011;36133;42.522;27.456;2023-05-10T14:43:25;8.13;;;3.70;;
50249;SDS011;36133;42.522;27.456;2023-05-10T14:45:52;7.25;;;3.22;;
50249;SDS011;36133;42.522;27.456;2023-05-10T14:48:18;8.90;;;3.25;;
50249;SDS011;36133;42.522;27.456;2023-05-10T14:50:44;11.68;;;3.35;;
50249;SDS011;36133;42.522;27.456;2023-05-10T14:56:04;7.80;;;2.75;;
50249;SDS011;36133;42.522;27.456;2023-05-10T14:58:30;9.13;;;2.92;;
50249;SDS011;36133;42.522;27.456;2023-05-10T15:00:59;9.80;;;3.33;;
50249;SDS011;36133;42.522;27.456;2023-05-10T15:03:25;7.05;;;3.15;;